Bettina K — PBEW — position and weather

sailwx.info

Track history (hours):
 
Tides and Currents Weather Stations Pressure Air Temp Water Temp Dewpoint Dewpoint Depression Visibility Wind Speed Wind Dir Waves Ship Positions

Bettina K

Last reported at 2016-Feb-10 00:29 UTC. Time now 2016-Feb-10 00:43 UTC.
Position N 51°27' E 003°36'.

Length 82 m; draft 4.9 m.

Type: Ship. MMSI: 244730469.

Date/timePositionNaut miles runAvg speedWind from/ knotsBaromVisibWave heightAir tempDewpointWater temp
2016-Feb-10 00:29N 51°27' E 003°36'0 0.0
2016-Feb-09 23:29N 51°27' E 003°36'0 0.0
2016-Feb-09 22:29N 51°27' E 003°36'0 0.0
2016-Feb-09 21:29N 51°27' E 003°36'0 0.0
2016-Feb-09 20:32N 51°27' E 003°36'0 0.0
2016-Feb-09 19:32N 51°27' E 003°36'0 0.0
2016-Feb-09 18:32N 51°27' E 003°36'0 0.0
2016-Feb-09 17:29N 51°27' E 003°36'0 0.0
2016-Feb-09 16:29N 51°27' E 003°36'0 0.0
2016-Feb-09 15:29N 51°27' E 003°36'0 0.0
2016-Feb-09 14:32N 51°27' E 003°36'0 0.0
2016-Feb-09 13:32N 51°27' E 003°36'0 0.0
2016-Feb-09 12:32N 51°27' E 003°36'0 0.0
2016-Feb-09 11:32N 51°27' E 003°36'0 0.0
2016-Feb-09 10:31N 51°27' E 003°36'0 0.0
2016-Feb-09 09:32N 51°27' E 003°36'0 0.0
2016-Feb-09 08:31N 51°27' E 003°36'0 0.0
2016-Feb-09 07:26N 51°27' E 003°36'0 0.0
2016-Feb-09 06:28N 51°27' E 003°36'0 0.0
2016-Feb-09 05:31N 51°27' E 003°36'0 0.0
2016-Feb-09 04:29N 51°27' E 003°36'0 0.0
2016-Feb-09 03:31N 51°27' E 003°36'0 0.0
2016-Feb-09 02:31N 51°27' E 003°36'0 0.0
2016-Feb-09 01:28N 51°27' E 003°36'0 0.0
2016-Feb-09 00:29N 51°27' E 003°36'0 0.0
2016-Feb-08 23:29N 51°27' E 003°36'0 0.0
2016-Feb-08 22:32N 51°27' E 003°36'0 0.0
2016-Feb-08 21:32N 51°27' E 003°36'0 0.0
2016-Feb-08 20:22N 51°27' E 003°36'0 0.0
2016-Feb-08 19:28N 51°27' E 003°36'0 0.0
2016-Feb-08 18:32N 51°27' E 003°36'0 0.0
2016-Feb-08 17:28N 51°27' E 003°36'0 0.0
2016-Feb-08 16:28N 51°27' E 003°36'0 0.0
2016-Feb-08 15:31N 51°27' E 003°36'0 0.0
2016-Feb-08 14:20N 51°27' E 003°36'0 0.0
2016-Feb-08 13:28N 51°27' E 003°36'0 0.0
2016-Feb-08 12:28N 51°27' E 003°36'0 0.0
2016-Feb-08 11:28N 51°27' E 003°36'0 0.0
2016-Feb-08 10:31N 51°27' E 003°36'0 0.0
2016-Feb-08 09:22N 51°27' E 003°36'0 0.0
2016-Feb-08 08:33N 51°27' E 003°36'5 4.6
2016-Feb-08 07:33N 51°25' E 003°29'9 8.3
2016-Feb-08 06:28N 51°23' E 003°15'8 8.7
2016-Feb-08 05:33N 51°22' E 003°02'9 9.3
2016-Feb-08 04:33N 51°21' E 002°48'6 5.9
2016-Feb-08 03:32N 51°22' E 002°38'3 2.6
2016-Feb-08 02:33N 51°22' E 002°34'4 4.1
2016-Feb-08 01:32N 51°21' E 002°27'7 6.5
2016-Feb-08 00:32N 51°18' E 002°18'7 7.0
2016-Feb-07 23:28N 51°14' E 002°08'6 6.5
2016-Feb-07 22:33N 51°11' E 002°00'6 6.2
2016-Feb-07 21:33N 51°08' E 001°51'6 5.9
2016-Feb-07 20:33N 51°04' E 001°44'5 4.6
2016-Feb-07 19:33N 51°01' E 001°39'4 3.4
2016-Feb-07 18:30N 50°58' E 001°35'5 3.4
2016-Feb-07 17:05N 50°55' E 001°31'3 4.2
2016-Feb-07 16:18N 50°51' E 001°29'  
Track history (hours):
 
Tides and Currents Weather Stations Pressure Air Temp Water Temp Dewpoint Dewpoint Depression Visibility Wind Speed Wind Dir Waves Ship Positions

Bettina K

Last reported at 2016-Feb-10 00:29 UTC. Time now 2016-Feb-10 00:43 UTC.
Position N 51°27' E 003°36'.

Length 82 m; draft 4.9 m.

Type: Ship. MMSI: 244730469.

Date/timePositionNaut miles runAvg speedWind from/ knotsBaromVisibWave heightAir tempDewpointWater temp
2016-Feb-10 00:29N 51°27' E 003°36'0 0.0
2016-Feb-09 23:29N 51°27' E 003°36'0 0.0
2016-Feb-09 22:29N 51°27' E 003°36'0 0.0
2016-Feb-09 21:29N 51°27' E 003°36'0 0.0
2016-Feb-09 20:32N 51°27' E 003°36'0 0.0
2016-Feb-09 19:32N 51°27' E 003°36'0 0.0
2016-Feb-09 18:32N 51°27' E 003°36'0 0.0
2016-Feb-09 17:29N 51°27' E 003°36'0 0.0
2016-Feb-09 16:29N 51°27' E 003°36'0 0.0
2016-Feb-09 15:29N 51°27' E 003°36'0 0.0
2016-Feb-09 14:32N 51°27' E 003°36'0 0.0
2016-Feb-09 13:32N 51°27' E 003°36'0 0.0
2016-Feb-09 12:32N 51°27' E 003°36'0 0.0
2016-Feb-09 11:32N 51°27' E 003°36'0 0.0
2016-Feb-09 10:31N 51°27' E 003°36'0 0.0
2016-Feb-09 09:32N 51°27' E 003°36'0 0.0
2016-Feb-09 08:31N 51°27' E 003°36'0 0.0
2016-Feb-09 07:26N 51°27' E 003°36'0 0.0
2016-Feb-09 06:28N 51°27' E 003°36'0 0.0
2016-Feb-09 05:31N 51°27' E 003°36'0 0.0
2016-Feb-09 04:29N 51°27' E 003°36'0 0.0
2016-Feb-09 03:31N 51°27' E 003°36'0 0.0
2016-Feb-09 02:31N 51°27' E 003°36'0 0.0
2016-Feb-09 01:28N 51°27' E 003°36'0 0.0
2016-Feb-09 00:29N 51°27' E 003°36'0 0.0
2016-Feb-08 23:29N 51°27' E 003°36'0 0.0
2016-Feb-08 22:32N 51°27' E 003°36'0 0.0
2016-Feb-08 21:32N 51°27' E 003°36'0 0.0
2016-Feb-08 20:22N 51°27' E 003°36'0 0.0
2016-Feb-08 19:28N 51°27' E 003°36'0 0.0
2016-Feb-08 18:32N 51°27' E 003°36'0 0.0
2016-Feb-08 17:28N 51°27' E 003°36'0 0.0
2016-Feb-08 16:28N 51°27' E 003°36'0 0.0
2016-Feb-08 15:31N 51°27' E 003°36'0 0.0
2016-Feb-08 14:20N 51°27' E 003°36'0 0.0
2016-Feb-08 13:28N 51°27' E 003°36'0 0.0
2016-Feb-08 12:28N 51°27' E 003°36'0 0.0
2016-Feb-08 11:28N 51°27' E 003°36'0 0.0
2016-Feb-08 10:31N 51°27' E 003°36'0 0.0
2016-Feb-08 09:22N 51°27' E 003°36'0 0.0
2016-Feb-08 08:33N 51°27' E 003°36'5 4.6
2016-Feb-08 07:33N 51°25' E 003°29'9 8.3
2016-Feb-08 06:28N 51°23' E 003°15'8 8.7
2016-Feb-08 05:33N 51°22' E 003°02'9 9.3
2016-Feb-08 04:33N 51°21' E 002°48'6 5.9
2016-Feb-08 03:32N 51°22' E 002°38'3 2.6
2016-Feb-08 02:33N 51°22' E 002°34'4 4.1
2016-Feb-08 01:32N 51°21' E 002°27'7 6.5
2016-Feb-08 00:32N 51°18' E 002°18'7 7.0
2016-Feb-07 23:28N 51°14' E 002°08'6 6.5
2016-Feb-07 22:33N 51°11' E 002°00'6 6.2
2016-Feb-07 21:33N 51°08' E 001°51'6 5.9
2016-Feb-07 20:33N 51°04' E 001°44'5 4.6
2016-Feb-07 19:33N 51°01' E 001°39'4 3.4
2016-Feb-07 18:30N 50°58' E 001°35'5 3.4
2016-Feb-07 17:05N 50°55' E 001°31'3 4.2
2016-Feb-07 16:18N 50°51' E 001°29'  

Dump ship's entire track history